Time;durP1;ratioP1;P1;durP2;ratioP2;P2;SDS_P1;SDS_P2;PMS_P1;PMS_P2;Temp;Humidity;BMP_temperature;BMP_pressure;BME280_temperature;BME280_humidity;BME280_pressure;Samples;Min_cycle;Max_cycle;Signal;HPM_P1;HPM_P2
2023/10/18 00:00:25;;;;;;;;;;;;;;;6.72;60.03;97875.66;4963094;28;19929;-64
2023/10/18 00:02:54;;;;;;;;;;;;;;;6.70;59.81;97875.13;4967430;28;19957;-64
2023/10/18 00:05:22;;;;;;;;;;;;;;;6.64;59.90;97882.47;4971533;28;19929;-64
2023/10/18 00:07:51;;;;;;;;;;;;;;;6.64;59.97;97882.47;4968235;28;19930;-64
2023/10/18 00:10:21;;;;;;;;;;;;;;;6.59;60.29;97876.31;4970285;28;19922;-63
2023/10/18 00:12:52;;;;;;;;;;;;;;;6.69;59.89;97868.91;4968509;28;20347;-64
2023/10/18 00:15:20;;;;;;;;;;;;;;;6.64;59.96;97870.88;4972605;28;19929;-64
2023/10/18 00:17:48;;;;;;;;;;;;;;;6.61;60.05;97861.47;4971655;28;19926;-64
2023/10/18 00:20:20;;;;;;;;;;;;;;;6.50;60.33;97854.56;4966938;28;19934;-64
2023/10/18 00:22:48;;;;;;;;;;;;;;;6.51;60.41;97854.28;4968468;28;20241;-64
2023/10/18 00:25:16;;;;;;;;;;;;;;;6.47;60.38;97838.94;4951814;28;19929;-64
2023/10/18 00:27:45;;;;;;;;;;;;;;;6.51;60.43;97848.88;4970477;28;19925;-64
2023/10/18 00:30:17;;;;;;;;;;;;;;;6.49;60.55;97850.22;4968196;28;19922;-63
2023/10/18 00:32:46;;;;;;;;;;;;;;;6.42;60.56;97847.88;4964973;28;19940;-64
2023/10/18 00:35:18;;;;;;;;;;;;;;;6.34;60.77;97847.69;4969289;28;19930;-64
2023/10/18 00:37:47;;;;;;;;;;;;;;;6.42;60.32;97850.59;4964711;28;20391;-64
2023/10/18 00:40:32;;;;;;;;;;;;;;;6.38;60.66;97843.34;4966269;28;19922;-69
2023/10/18 00:43:14;;;;;;;;;;;;;;;6.31;60.92;97846.38;4964251;28;19937;-64
2023/10/18 00:45:45;;;;;;;;;;;;;;;6.24;61.00;97843.22;4967407;28;19922;-64
2023/10/18 00:48:14;;;;;;;;;;;;;;;6.26;60.84;97841.03;4966246;28;19998;-64
2023/10/18 00:50:43;;;;;;;;;;;;;;;6.30;60.70;97832.09;4966000;28;19926;-64
2023/10/18 00:53:11;;;;;;;;;;;;;;;6.30;60.74;97832.09;4962984;28;19937;-68
2023/10/18 00:55:39;;;;;;;;;;;;;;;6.23;60.86;97833.50;4952406;28;20276;-64
2023/10/18 00:58:08;;;;;;;;;;;;;;;6.27;60.32;97824.56;4970473;28;20264;-64
2023/10/18 01:00:39;;;;;;;;;;;;;;;6.29;60.80;97822.38;4947285;29;19927;-64
2023/10/18 01:03:15;;;;;;;;;;;;;;;6.32;60.66;97814.81;4933392;29;19937;-64
2023/10/18 01:05:59;;;;;;;;;;;;;;;6.34;60.11;97818.00;4947787;28;19953;-64
2023/10/18 01:08:29;;;;;;;;;;;;;;;6.32;60.21;97820.19;4950116;28;19934;-64
2023/10/18 01:11:01;;;;;;;;;;;;;;;6.26;60.52;97819.44;4951904;28;19930;-64
2023/10/18 01:13:31;;;;;;;;;;;;;;;6.26;60.41;97819.44;4951295;28;19926;-64
2023/10/18 01:16:00;;;;;;;;;;;;;;;6.27;60.67;97812.97;4929162;29;19926;-64
2023/10/18 01:18:30;;;;;;;;;;;;;;;6.20;61.15;97805.22;4955824;28;19926;-64
2023/10/18 01:21:00;;;;;;;;;;;;;;;6.19;61.40;97792.00;4927707;29;19929;-63
2023/10/18 01:23:28;;;;;;;;;;;;;;;6.19;61.17;97782.03;4943228;29;19956;-64
2023/10/18 01:25:59;;;;;;;;;;;;;;;6.17;61.17;97781.50;4927530;29;19946;-63
2023/10/18 01:28:26;;;;;;;;;;;;;;;6.16;61.43;97779.88;4941948;29;19965;-64
2023/10/18 01:30:54;;;;;;;;;;;;;;;6.17;61.46;97786.09;4946602;28;19973;-64
2023/10/18 01:33:22;;;;;;;;;;;;;;;6.20;61.17;97785.53;4945482;28;19923;-63
2023/10/18 01:35:53;;;;;;;;;;;;;;;6.19;61.34;97795.50;4941118;29;19923;-63
2023/10/18 01:38:25;;;;;;;;;;;;;;;6.16;61.45;97785.28;4930358;29;19934;-64
2023/10/18 01:40:55;;;;;;;;;;;;;;;6.12;61.12;97784.25;4946891;28;19964;-64
2023/10/18 01:43:27;;;;;;;;;;;;;;;6.13;61.19;97775.09;4948313;28;20517;-63
2023/10/18 01:45:57;;;;;;;;;;;;;;;6.18;61.18;97777.72;4944471;29;19926;-63
2023/10/18 01:48:25;;;;;;;;;;;;;;;6.18;61.42;97769.63;4948688;28;19946;-63
2023/10/18 01:50:53;;;;;;;;;;;;;;;6.16;61.32;97773.69;4949846;29;19992;-64
2023/10/18 01:53:23;;;;;;;;;;;;;;;6.16;61.27;97771.78;4951398;28;19922;-64
2023/10/18 01:55:53;;;;;;;;;;;;;;;6.15;61.17;97772.09;4951226;29;19922;-64
2023/10/18 01:58:24;;;;;;;;;;;;;;;6.10;61.38;97758.66;4929521;28;19927;-64
2023/10/18 02:00:55;;;;;;;;;;;;;;;6.10;61.37;97770.25;4951138;28;19992;-69
2023/10/18 02:03:24;;;;;;;;;;;;;;;6.14;61.24;97759.69;4967878;28;19930;-64
2023/10/18 02:05:52;;;;;;;;;;;;;;;6.09;61.53;97760.56;4951834;28;20653;-63
2023/10/18 02:08:20;;;;;;;;;;;;;;;6.06;61.47;97758.41;4959054;28;20276;-64
2023/10/18 02:10:50;;;;;;;;;;;;;;;6.11;61.42;97755.66;4969285;28;20443;-65
2023/10/18 02:13:18;;;;;;;;;;;;;;;6.04;61.31;97749.81;4966316;28;19929;-63
2023/10/18 02:15:48;;;;;;;;;;;;;;;6.03;61.51;97750.91;4950273;28;19922;-64
2023/10/18 02:18:17;;;;;;;;;;;;;;;6.06;61.84;97752.22;4964027;28;19941;-63
2023/10/18 02:20:52;;;;;;;;;;;;;;;6.02;61.55;97744.72;4969037;28;20272;-64
2023/10/18 02:23:21;;;;;;;;;;;;;;;6.01;61.56;97750.38;4967573;28;19926;-64
2023/10/18 02:25:50;;;;;;;;;;;;;;;6.02;61.68;97758.19;4947062;28;19933;-63
2023/10/18 02:28:28;;;;;;;;;;;;;;;6.03;61.49;97751.72;4967948;28;19946;-64
2023/10/18 02:30:56;;;;;;;;;;;;;;;6.05;61.78;97751.41;4972943;28;19932;-63
2023/10/18 02:33:26;;;;;;;;;;;;;;;5.98;62.27;97748.25;4954173;28;19949;-64
2023/10/18 02:35:57;;;;;;;;;;;;;;;5.94;61.77;97739.13;4973224;28;20379;-64
2023/10/18 02:38:26;;;;;;;;;;;;;;;6.00;61.90;97743.38;4962224;28;20307;-64
2023/10/18 02:40:56;;;;;;;;;;;;;;;6.02;61.67;97742.03;4952877;28;19929;-64
2023/10/18 02:43:25;;;;;;;;;;;;;;;6.06;61.82;97747.63;4962701;28;19923;-64
2023/10/18 02:45:53;;;;;;;;;;;;;;;5.97;61.87;97746.66;4956143;28;19929;-64
2023/10/18 02:48:24;;;;;;;;;;;;;;;6.04;61.83;97741.72;4971646;28;20371;-64
2023/10/18 02:50:54;;;;;;;;;;;;;;;6.03;61.69;97742.81;4952425;28;20344;-64
2023/10/18 02:53:22;;;;;;;;;;;;;;;6.06;61.42;97736.03;4971451;28;19933;-64
2023/10/18 02:55:50;;;;;;;;;;;;;;;6.02;61.60;97730.44;4972617;28;20320;-64
2023/10/18 02:58:21;;;;;;;;;;;;;;;5.98;61.57;97729.38;4969859;28;19934;-63
2023/10/18 03:00:50;;;;;;;;;;;;;;;6.06;61.24;97723.34;4972846;28;19933;-63
2023/10/18 03:03:21;;;;;;;;;;;;;;;5.99;61.57;97720.19;4954281;28;20364;-64
2023/10/18 03:05:51;;;;;;;;;;;;;;;6.00;61.53;97721.81;4971742;28;19980;-63
2023/10/18 03:08:21;;;;;;;;;;;;;;;6.02;61.47;97712.34;4972372;28;19938;-63
2023/10/18 03:10:51;;;;;;;;;;;;;;;5.93;61.83;97715.97;4953720;28;19927;-64
2023/10/18 03:13:23;;;;;;;;;;;;;;;5.89;61.81;97709.50;4955915;28;19929;-64
2023/10/18 03:16:05;;;;;;;;;;;;;;;5.85;61.92;97719.22;4969986;28;19926;-64
2023/10/18 03:18:40;;;;;;;;;;;;;;;5.85;62.19;97713.84;4961101;28;19930;-64
2023/10/18 03:21:09;;;;;;;;;;;;;;;5.81;62.21;97712.81;4964313;28;20566;-63
2023/10/18 03:23:44;;;;;;;;;;;;;;;5.86;62.08;97715.44;4955359;28;19922;-63
2023/10/18 03:26:12;;;;;;;;;;;;;;;5.90;62.12;97711.91;4972736;28;20026;-64
2023/10/18 03:28:43;;;;;;;;;;;;;;;5.82;61.94;97703.63;4972566;28;19965;-64
2023/10/18 03:31:21;;;;;;;;;;;;;;;5.87;62.45;97708.97;4972616;28;20257;-63
2023/10/18 03:33:53;;;;;;;;;;;;;;;5.81;62.33;97708.22;4953071;28;19930;-64
2023/10/18 03:36:22;;;;;;;;;;;;;;;5.79;62.77;97713.88;4972831;28;19926;-63
2023/10/18 03:38:54;;;;;;;;;;;;;;;5.80;62.69;97709.28;4971984;28;19926;-63
2023/10/18 03:41:25;;;;;;;;;;;;;;;5.77;62.57;97708.00;4956663;28;19933;-63
2023/10/18 03:44:03;;;;;;;;;;;;;;;5.83;62.76;97710.63;4967452;28;19954;-63
2023/10/18 03:46:38;;;;;;;;;;;;;;;5.84;62.58;97709.53;4953433;28;20380;-63
2023/10/18 03:49:10;;;;;;;;;;;;;;;5.88;62.50;97707.88;4952968;28;19922;-64
2023/10/18 03:51:39;;;;;;;;;;;;;;;5.85;62.74;97711.16;4965264;28;20383;-64
2023/10/18 03:54:13;;;;;;;;;;;;;;;5.87;62.87;97707.09;4965048;28;19926;-64
2023/10/18 03:56:43;;;;;;;;;;;;;;;5.89;62.54;97713.00;4971492;28;19934;-63
2023/10/18 03:59:19;;;;;;;;;;;;;;;5.86;62.55;97701.97;4947832;28;19922;-63
2023/10/18 04:02:02;;;;;;;;;;;;;;;5.86;62.62;97688.47;4967826;28;19953;-64
2023/10/18 04:04:34;;;;;;;;;;;;;;;5.84;62.45;97691.47;4963919;28;20016;-64
2023/10/18 04:07:12;;;;;;;;;;;;;;;5.75;62.80;97685.91;4970107;28;19926;-63
2023/10/18 04:09:46;;;;;;;;;;;;;;;5.84;62.51;97685.28;4964735;28;19930;-64
2023/10/18 04:12:17;;;;;;;;;;;;;;;5.83;62.45;97678.28;4968065;28;19945;-63
2023/10/18 04:14:52;;;;;;;;;;;;;;;5.88;62.34;97672.84;4969188;28;19989;-63
2023/10/18 04:17:36;;;;;;;;;;;;;;;5.94;61.92;97674.41;4961750;28;19938;-64
2023/10/18 04:20:08;;;;;;;;;;;;;;;5.90;62.03;97667.94;4966856;28;19979;-63
2023/10/18 04:22:36;;;;;;;;;;;;;;;5.95;61.72;97666.03;4969398;28;19946;-64
2023/10/18 04:25:14;;;;;;;;;;;;;;;5.93;62.05;97660.13;4970272;28;19927;-64
2023/10/18 04:27:44;;;;;;;;;;;;;;;5.99;61.63;97661.69;4970675;28;19953;-63
2023/10/18 04:30:16;;;;;;;;;;;;;;;5.98;61.92;97653.88;4972037;28;19926;-63
2023/10/18 04:32:45;;;;;;;;;;;;;;;5.92;61.98;97655.03;4965437;28;20374;-63
2023/10/18 04:35:18;;;;;;;;;;;;;;;6.03;61.80;97651.13;4969956;28;19953;-63
2023/10/18 04:37:48;;;;;;;;;;;;;;;6.14;61.03;97651.81;4966168;28;19933;-63
2023/10/18 04:40:24;;;;;;;;;;;;;;;6.06;61.53;97650.53;4968527;28;19934;-63
2023/10/18 04:42:54;;;;;;;;;;;;;;;6.11;61.23;97650.47;4970993;28;19932;-64
2023/10/18 04:45:23;;;;;;;;;;;;;;;6.09;61.56;97651.88;4967248;28;19976;-64
2023/10/18 04:47:57;;;;;;;;;;;;;;;5.97;61.51;97644.19;4965131;28;19934;-63
2023/10/18 04:50:29;;;;;;;;;;;;;;;6.07;61.55;97641.34;4950700;28;20414;-63
2023/10/18 04:52:58;;;;;;;;;;;;;;;5.93;61.61;97640.47;4967026;28;19934;-63
2023/10/18 04:55:27;;;;;;;;;;;;;;;5.95;61.95;97632.88;4967732;28;19929;-63
2023/10/18 04:57:54;;;;;;;;;;;;;;;6.01;61.81;97631.72;4970969;28;19926;-63
2023/10/18 05:00:35;;;;;;;;;;;;;;;6.00;61.24;97628.22;4967103;28;19937;-63
2023/10/18 05:03:06;;;;;;;;;;;;;;;6.06;61.32;97620.06;4966667;28;20116;-62
2023/10/18 05:05:44;;;;;;;;;;;;;;;6.14;60.98;97622.16;4968453;28;19926;-63
2023/10/18 05:08:14;;;;;;;;;;;;;;;6.21;60.69;97620.69;4970004;28;20455;-63
2023/10/18 05:10:45;;;;;;;;;;;;;;;6.34;60.23;97613.78;4970810;28;20479;-63
2023/10/18 05:13:23;;;;;;;;;;;;;;;6.33;60.70;97619.44;4961241;28;20335;-63
2023/10/18 05:15:51;;;;;;;;;;;;;;;6.34;60.54;97626.44;4959926;28;19941;-62
2023/10/18 05:18:23;;;;;;;;;;;;;;;6.30;60.66;97628.94;4963135;28;19945;-63
2023/10/18 05:20:57;;;;;;;;;;;;;;;6.32;60.32;97615.94;4960456;28;20268;-63
2023/10/18 05:23:26;;;;;;;;;;;;;;;6.32;60.66;97609.75;4961515;28;20383;-63
2023/10/18 05:26:08;;;;;;;;;;;;;;;6.34;60.32;97616.47;4953292;28;19925;-63
2023/10/18 05:28:46;;;;;;;;;;;;;;;6.43;60.29;97617.41;4966790;28;19937;-63
2023/10/18 05:31:44;;;;;;;;;;;;;;;6.33;60.36;97622.16;4970071;28;19929;-63
2023/10/18 05:34:22;;;;;;;;;;;;;;;6.56;59.55;97627.50;4970470;28;19996;-63
2023/10/18 05:36:55;;;;;;;;;;;;;;;6.60;59.22;97619.59;4964722;28;19929;-63
2023/10/18 05:39:28;;;;;;;;;;;;;;;6.71;59.05;97618.38;4947099;28;19922;-63
2023/10/18 05:41:59;;;;;;;;;;;;;;;6.68;59.09;97618.94;4960473;28;19938;-63
2023/10/18 05:44:28;;;;;;;;;;;;;;;6.83;58.65;97605.22;4968893;28;19930;-64
2023/10/18 05:46:57;;;;;;;;;;;;;;;6.73;58.74;97610.78;4963569;28;20296;-63
2023/10/18 05:49:25;;;;;;;;;;;;;;;6.69;58.72;97607.06;4971195;28;20342;-63
2023/10/18 05:52:15;;;;;;;;;;;;;;;6.56;59.35;97607.81;4965737;28;19922;-62
2023/10/18 05:54:44;;;;;;;;;;;;;;;6.49;59.63;97605.44;4966451;28;20013;-63
2023/10/18 05:57:19;;;;;;;;;;;;;;;6.62;59.23;97612.03;4967527;28;19926;-62
2023/10/18 05:59:48;;;;;;;;;;;;;;;6.63;59.31;97616.31;4965344;28;19938;-62
2023/10/18 06:02:22;;;;;;;;;;;;;;;6.70;59.10;97616.75;4974215;28;19926;-63
2023/10/18 06:04:51;;;;;;;;;;;;;;;6.62;59.33;97612.03;4970537;28;19930;-62
2023/10/18 06:07:22;;;;;;;;;;;;;;;6.61;59.42;97618.53;4973930;28;19929;-62
2023/10/18 06:09:55;;;;;;;;;;;;;;;6.71;59.09;97612.97;4974289;28;19964;-63
2023/10/18 06:12:27;;;;;;;;;;;;;;;6.66;59.04;97615.75;4974745;28;20022;-63
2023/10/18 06:14:57;;;;;;;;;;;;;;;6.68;59.29;97608.16;4972575;28;20267;-63
2023/10/18 06:17:40;;;;;;;;;;;;;;;6.67;59.16;97622.75;4975236;28;19922;-63
2023/10/18 06:20:14;;;;;;;;;;;;;;;6.75;58.87;97618.56;4954209;28;19928;-62
2023/10/18 06:22:43;;;;;;;;;;;;;;;6.53;59.41;97616.47;4969453;28;20383;-62
2023/10/18 06:25:25;;;;;;;;;;;;;;;6.59;59.47;97609.91;4974682;28;20279;-63
2023/10/18 06:27:54;;;;;;;;;;;;;;;6.61;59.64;97596.13;4966497;28;20272;-62
2023/10/18 06:30:24;;;;;;;;;;;;;;;6.71;59.03;97591.38;4967356;28;20523;-62
2023/10/18 06:32:53;;;;;;;;;;;;;;;6.67;58.99;97593.06;4973638;28;19988;-63
2023/10/18 06:35:26;;;;;;;;;;;;;;;6.67;59.17;97590.34;4975012;28;19922;-63
2023/10/18 06:37:54;;;;;;;;;;;;;;;6.60;59.46;97584.50;4962107;28;19930;-62
2023/10/18 06:40:25;;;;;;;;;;;;;;;6.61;59.66;97585.34;4969579;28;19929;-63
2023/10/18 06:42:53;;;;;;;;;;;;;;;6.56;59.53;97583.50;4968993;28;19984;-62
2023/10/18 06:45:25;;;;;;;;;;;;;;;6.58;59.88;97578.63;4971065;28;19922;-62
2023/10/18 06:47:54;;;;;;;;;;;;;;;6.63;59.45;97578.53;4966927;28;19926;-64
2023/10/18 06:50:27;;;;;;;;;;;;;;;6.67;59.13;97598.47;4977961;28;19965;-62
2023/10/18 06:52:55;;;;;;;;;;;;;;;6.74;59.65;97596.19;4968345;28;19936;-63
2023/10/18 06:55:35;;;;;;;;;;;;;;;6.74;59.10;97604.28;4963786;28;19932;-63
2023/10/18 06:58:12;;;;;;;;;;;;;;;6.70;59.48;97605.94;4965736;28;20743;-63
2023/10/18 07:00:44;;;;;;;;;;;;;;;6.77;59.44;97603.69;4952322;28;19922;-63
2023/10/18 07:03:16;;;;;;;;;;;;;;;6.75;59.76;97608.56;4973745;28;19922;-63
2023/10/18 07:05:46;;;;;;;;;;;;;;;6.79;59.48;97604.19;4970419;28;19922;-66
2023/10/18 07:08:20;;;;;;;;;;;;;;;6.83;59.45;97605.22;4969289;28;20375;-63
2023/10/18 07:10:54;;;;;;;;;;;;;;;6.86;59.38;97603.03;4967644;28;19934;-63
2023/10/18 07:13:42;;;;;;;;;;;;;;;6.76;59.80;97607.47;4972542;28;20485;-63
2023/10/18 07:16:15;;;;;;;;;;;;;;;6.72;59.91;97606.47;4965756;28;20016;-63
2023/10/18 07:18:44;;;;;;;;;;;;;;;6.72;59.74;97600.28;4970640;28;19926;-63
2023/10/18 07:21:18;;;;;;;;;;;;;;;6.83;59.79;97602.53;4968548;28;19930;-63
2023/10/18 07:23:53;;;;;;;;;;;;;;;6.69;60.15;97598.97;4966591;28;19922;-63
2023/10/18 07:26:22;;;;;;;;;;;;;;;6.76;60.51;97593.19;4970779;28;20343;-63
2023/10/18 07:28:50;;;;;;;;;;;;;;;6.80;60.64;97586.91;4973830;28;19941;-63
2023/10/18 07:31:19;;;;;;;;;;;;;;;6.81;60.46;97591.19;4970974;28;20384;-64
2023/10/18 07:33:50;;;;;;;;;;;;;;;6.77;60.09;97584.00;4968437;28;19986;-63
2023/10/18 07:36:18;;;;;;;;;;;;;;;6.71;60.85;97569.78;4971308;28;19939;-63
2023/10/18 07:38:48;;;;;;;;;;;;;;;6.68;61.25;97564.97;4969006;28;19957;-63
2023/10/18 07:41:18;;;;;;;;;;;;;;;6.76;61.00;97561.56;4963606;28;19948;-63
2023/10/18 07:43:46;;;;;;;;;;;;;;;6.86;61.02;97570.63;4968075;28;19922;-63
2023/10/18 07:46:18;;;;;;;;;;;;;;;6.86;60.57;97579.50;4965663;28;19932;-63
2023/10/18 07:48:47;;;;;;;;;;;;;;;6.89;60.59;97570.03;4966382;28;19928;-63
2023/10/18 07:51:24;;;;;;;;;;;;;;;6.93;60.18;97573.75;4964796;28;19929;-63
2023/10/18 07:53:54;;;;;;;;;;;;;;;6.91;60.68;97565.13;4970225;28;20459;-62
2023/10/18 07:56:27;;;;;;;;;;;;;;;6.93;60.74;97565.66;4968975;28;19929;-63
2023/10/18 07:58:55;;;;;;;;;;;;;;;7.00;60.43;97566.88;4965478;28;19996;-63
2023/10/18 08:04:21;;;;;;;;;;;;;;;7.19;60.39;97566.00;4906307;29;20329;-63
2023/10/18 08:06:50;;;;;;;;;;;;;;;7.17;60.07;97562.81;4956782;28;19933;-64
2023/10/18 08:09:28;;;;;;;;;;;;;;;7.25;59.70;97554.03;4970814;28;19926;-64
2023/10/18 08:11:56;;;;;;;;;;;;;;;7.27;60.12;97541.81;4961514;28;20629;-63
2023/10/18 08:14:25;;;;;;;;;;;;;;;7.38;59.54;97534.31;4971761;28;19926;-63
2023/10/18 08:16:55;;;;;;;;;;;;;;;7.42;59.51;97545.31;4972110;28;20292;-64
2023/10/18 08:19:25;;;;;;;;;;;;;;;7.55;60.02;97536.41;4982408;28;19933;-63
2023/10/18 08:24:49;;;;;;;;;;;;;;;7.83;58.39;97521.78;4959072;28;19934;-63
2023/10/18 08:27:18;;;;;;;;;;;;;;;7.88;58.76;97518.97;4970797;28;20287;-63
2023/10/18 08:29:52;;;;;;;;;;;;;;;7.99;58.45;97518.72;4976823;28;19922;-66
2023/10/18 08:32:29;;;;;;;;;;;;;;;7.91;58.10;97522.16;4972346;28;19932;-63
2023/10/18 08:35:07;;;;;;;;;;;;;;;7.86;57.74;97526.56;4961660;28;19922;-63
2023/10/18 08:37:36;;;;;;;;;;;;;;;7.94;58.47;97529.69;4967950;28;19969;-63
2023/10/18 08:40:15;;;;;;;;;;;;;;;7.97;57.96;97529.88;4969651;28;19933;-63
2023/10/18 08:42:49;;;;;;;;;;;;;;;7.90;57.97;97528.69;4973206;28;20372;-63
2023/10/18 08:45:23;;;;;;;;;;;;;;;7.92;58.04;97529.97;4971113;28;19922;-62
2023/10/18 08:47:56;;;;;;;;;;;;;;;8.06;58.76;97532.66;4967952;28;19969;-63
2023/10/18 08:50:32;;;;;;;;;;;;;;;8.13;57.95;97522.22;4949036;28;19945;-63
2023/10/18 08:53:03;;;;;;;;;;;;;;;8.14;57.67;97524.59;4970395;28;20009;-62
2023/10/18 08:55:44;;;;;;;;;;;;;;;8.22;57.75;97520.41;4971385;28;19930;-63
2023/10/18 08:58:17;;;;;;;;;;;;;;;8.32;57.62;97520.16;4970516;28;19929;-63
2023/10/18 09:01:05;;;;;;;;;;;;;;;8.44;57.51;97521.56;4970796;28;20261;-63
2023/10/18 09:03:33;;;;;;;;;;;;;;;8.56;57.50;97511.78;4967039;28;20018;-63
2023/10/18 09:06:05;;;;;;;;;;;;;;;8.54;56.93;97516.69;4968393;28;19922;-64
2023/10/18 09:08:39;;;;;;;;;;;;;;;8.63;56.89;97514.88;4964043;28;20281;-63
2023/10/18 09:11:20;;;;;;;;;;;;;;;8.69;56.24;97514.75;4967990;28;19922;-63
2023/10/18 09:14:07;;;;;;;;;;;;;;;8.57;56.97;97509.84;4971132;28;19982;-63
2023/10/18 09:16:37;;;;;;;;;;;;;;;8.63;56.91;97497.81;4969036;28;19930;-63
2023/10/18 09:19:05;;;;;;;;;;;;;;;8.59;56.80;97497.63;4968156;28;20016;-63
2023/10/18 09:21:50;;;;;;;;;;;;;;;8.42;57.27;97494.00;4965357;28;19926;-63
2023/10/18 09:24:23;;;;;;;;;;;;;;;8.44;57.61;97489.06;4965982;28;19922;-63
2023/10/18 09:26:51;;;;;;;;;;;;;;;8.45;57.45;97482.53;4970003;28;19929;-63
2023/10/18 09:29:19;;;;;;;;;;;;;;;8.56;57.34;97476.56;4969967;28;19933;-63
2023/10/18 09:31:53;;;;;;;;;;;;;;;8.69;57.12;97476.81;4968765;28;19922;-63
2023/10/18 09:34:33;;;;;;;;;;;;;;;8.91;56.82;97483.00;4964474;28;19929;-63
2023/10/18 09:37:04;;;;;;;;;;;;;;;9.04;56.56;97481.31;4965437;28;19989;-63
2023/10/18 09:39:39;;;;;;;;;;;;;;;9.07;56.03;97479.91;4962880;28;19941;-63
2023/10/18 09:42:12;;;;;;;;;;;;;;;9.15;55.91;97473.69;4968286;28;19930;-63
2023/10/18 09:44:41;;;;;;;;;;;;;;;9.26;55.37;97483.16;4962646;28;19922;-63
2023/10/18 09:47:09;;;;;;;;;;;;;;;9.39;55.86;97471.41;4970267;28;19946;-63
2023/10/18 09:49:37;;;;;;;;;;;;;;;9.59;56.04;97474.69;4948066;29;19926;-63
2023/10/18 09:52:07;;;;;;;;;;;;;;;9.61;55.26;97461.59;4963008;28;19933;-63
2023/10/18 09:54:35;;;;;;;;;;;;;;;9.69;54.78;97460.78;4970893;28;20371;-63
2023/10/18 09:57:08;;;;;;;;;;;;;;;9.67;55.31;97460.31;4971066;28;20331;-63
2023/10/18 09:59:38;;;;;;;;;;;;;;;9.81;55.17;97461.00;4969735;28;19989;-63
2023/10/18 10:02:08;;;;;;;;;;;;;;;9.90;55.34;97459.06;4968308;28;19922;-63
2023/10/18 10:04:36;;;;;;;;;;;;;;;9.97;54.44;97451.28;4971258;28;19972;-63
2023/10/18 10:09:59;;;;;;;;;;;;;;;10.12;53.81;97441.88;4964789;28;19922;-63
2023/10/18 10:12:27;;;;;;;;;;;;;;;10.23;53.85;97442.34;4960682;28;19922;-63
2023/10/18 10:14:58;;;;;;;;;;;;;;;10.32;54.07;97435.00;4971049;28;19937;-63
2023/10/18 10:17:28;;;;;;;;;;;;;;;10.36;53.18;97427.81;4967483;28;19926;-63
2023/10/18 10:19:57;;;;;;;;;;;;;;;10.39;53.37;97420.97;4969180;28;19926;-63
2023/10/18 10:22:25;;;;;;;;;;;;;;;10.40;53.33;97417.91;4969693;28;20273;-63
2023/10/18 10:25:04;;;;;;;;;;;;;;;10.51;53.46;97415.66;4969658;28;20411;-63
2023/10/18 10:27:49;;;;;;;;;;;;;;;10.58;53.95;97407.00;4970278;28;19933;-63
2023/10/18 10:30:26;;;;;;;;;;;;;;;10.66;53.34;97400.78;4971773;28;20368;-63
2023/10/18 10:32:54;;;;;;;;;;;;;;;10.72;53.16;97391.31;4964837;28;19957;-63
2023/10/18 10:35:24;;;;;;;;;;;;;;;10.69;52.81;97392.75;4970807;28;19922;-63
2023/10/18 10:37:52;;;;;;;;;;;;;;;10.75;51.25;97394.16;4970292;28;19922;-63
2023/10/18 10:40:36;;;;;;;;;;;;;;;10.84;52.20;97383.28;4963367;28;19946;-63
2023/10/18 10:43:08;;;;;;;;;;;;;;;10.92;51.32;97368.03;4970882;28;19926;-63
2023/10/18 10:45:38;;;;;;;;;;;;;;;10.96;50.57;97380.66;4963524;28;19970;-64
2023/10/18 10:48:30;;;;;;;;;;;;;;;10.98;50.27;97358.59;4963245;28;20356;-64
2023/10/18 10:51:06;;;;;;;;;;;;;;;11.05;50.86;97360.81;4968849;28;20508;-64
2023/10/18 10:53:43;;;;;;;;;;;;;;;11.14;51.30;97356.13;4972752;28;19926;-63
2023/10/18 10:56:18;;;;;;;;;;;;;;;11.17;49.97;97348.09;4968184;28;20331;-65
2023/10/18 10:58:54;;;;;;;;;;;;;;;11.20;48.74;97352.88;4966059;28;19926;-62
2023/10/18 11:01:39;;;;;;;;;;;;;;;11.16;48.92;97343.00;4966795;28;19926;-63
2023/10/18 11:04:11;;;;;;;;;;;;;;;11.22;49.80;97337.03;4971762;28;19985;-63
2023/10/18 11:06:42;;;;;;;;;;;;;;;11.30;50.14;97329.97;4971122;28;19922;-63
2023/10/18 11:09:15;;;;;;;;;;;;;;;11.42;49.65;97323.81;4969063;28;19922;-63
2023/10/18 11:11:45;;;;;;;;;;;;;;;11.53;48.94;97327.72;4972474;28;20296;-63
2023/10/18 11:14:18;;;;;;;;;;;;;;;11.69;49.21;97319.75;4971409;28;20394;-64
2023/10/18 11:16:53;;;;;;;;;;;;;;;11.82;48.47;97313.25;4973422;28;19921;-63
2023/10/18 11:19:28;;;;;;;;;;;;;;;11.96;48.40;97305.59;4971715;28;20501;-63
2023/10/18 11:21:58;;;;;;;;;;;;;;;12.13;47.87;97306.56;4965340;28;20315;-63
2023/10/18 11:24:27;;;;;;;;;;;;;;;12.19;46.43;97294.34;4969320;28;20399;-62
2023/10/18 11:26:59;;;;;;;;;;;;;;;12.21;46.75;97289.38;4973919;28;20376;-62
2023/10/18 11:29:27;;;;;;;;;;;;;;;12.23;46.79;97278.91;4970793;28;19930;-61
2023/10/18 11:31:56;;;;;;;;;;;;;;;12.32;46.90;97287.78;4969873;28;20716;-61
2023/10/18 11:34:24;;;;;;;;;;;;;;;12.40;46.25;97277.91;4971117;28;19922;-61
2023/10/18 11:36:54;;;;;;;;;;;;;;;12.45;46.73;97270.31;4971994;28;19926;-62
2023/10/18 11:39:25;;;;;;;;;;;;;;;12.51;46.38;97262.72;4962560;28;19922;-62
2023/10/18 11:41:56;;;;;;;;;;;;;;;12.48;45.84;97257.97;4968645;28;19945;-62
2023/10/18 11:44:30;;;;;;;;;;;;;;;12.45;45.83;97240.34;4969841;28;20359;-61
2023/10/18 11:47:03;;;;;;;;;;;;;;;12.52;46.54;97242.53;4965990;28;20368;-62
2023/10/18 11:49:35;;;;;;;;;;;;;;;12.49;45.56;97241.28;4967001;28;19934;-62
2023/10/18 11:52:03;;;;;;;;;;;;;;;12.49;45.70;97233.09;4969761;28;19930;-61
2023/10/18 11:54:31;;;;;;;;;;;;;;;12.51;45.71;97228.09;4968005;28;19921;-62
2023/10/18 11:57:00;;;;;;;;;;;;;;;12.57;46.20;97226.75;4966020;28;20379;-61
2023/10/18 11:59:29;;;;;;;;;;;;;;;12.61;45.79;97223.34;4958941;28;20380;-62
2023/10/18 12:01:57;;;;;;;;;;;;;;;12.66;46.48;97220.38;4970616;28;19922;-62
2023/10/18 12:04:29;;;;;;;;;;;;;;;12.68;45.60;97210.75;4970523;28;19926;-61
2023/10/18 12:06:57;;;;;;;;;;;;;;;12.62;45.28;97198.47;4970616;28;20006;-61
2023/10/18 12:09:30;;;;;;;;;;;;;;;12.67;45.86;97194.72;4967154;28;20028;-61
2023/10/18 12:12:05;;;;;;;;;;;;;;;12.71;45.26;97184.72;4970133;28;19992;-62
2023/10/18 12:14:36;;;;;;;;;;;;;;;12.70;45.63;97177.69;4968889;28;19922;-61
2023/10/18 12:17:04;;;;;;;;;;;;;;;12.74;45.43;97178.59;4970810;28;19922;-61
2023/10/18 12:19:32;;;;;;;;;;;;;;;12.79;45.60;97178.38;4972247;28;19926;-60
2023/10/18 12:22:00;;;;;;;;;;;;;;;12.83;45.65;97185.50;4969083;28;19970;-60
2023/10/18 12:24:28;;;;;;;;;;;;;;;12.85;46.17;97185.97;4956520;28;20380;-61
2023/10/18 12:26:56;;;;;;;;;;;;;;;12.89;45.23;97179.81;4963381;28;20360;-60
2023/10/18 12:29:27;;;;;;;;;;;;;;;12.92;45.08;97179.13;4956635;28;20343;-60
2023/10/18 12:32:18;;;;;;;;;;;;;;;12.93;45.00;97175.25;4961257;28;20017;-60
2023/10/18 12:34:48;;;;;;;;;;;;;;;12.92;45.36;97163.56;4963168;28;19923;-60
2023/10/18 12:37:16;;;;;;;;;;;;;;;12.94;45.71;97166.72;4964484;28;19922;-60
2023/10/18 12:39:47;;;;;;;;;;;;;;;12.97;45.75;97170.72;4964936;28;19922;-61
2023/10/18 12:42:19;;;;;;;;;;;;;;;13.00;44.97;97168.09;4965711;28;20390;-60
2023/10/18 12:44:48;;;;;;;;;;;;;;;13.02;44.77;97157.63;4971350;28;20368;-60
2023/10/18 12:47:20;;;;;;;;;;;;;;;13.04;44.53;97152.63;4968003;28;19973;-60
2023/10/18 12:49:50;;;;;;;;;;;;;;;13.07;44.58;97153.88;4966170;28;20339;-60
2023/10/18 12:55:06;;;;;;;;;;;;;;;13.09;44.86;97138.72;4967978;28;19964;-60
2023/10/18 12:57:34;;;;;;;;;;;;;;;13.11;44.09;97127.50;4963668;28;20011;-60
2023/10/18 13:00:16;;;;;;;;;;;;;;;13.12;44.59;97118.19;4966722;28;19926;-60
2023/10/18 13:02:50;;;;;;;;;;;;;;;13.15;44.97;97122.91;4968381;28;19928;-60
2023/10/18 13:05:18;;;;;;;;;;;;;;;13.17;45.94;97119.88;4967027;28;19926;-60
2023/10/18 13:07:52;;;;;;;;;;;;;;;13.19;45.63;97120.31;4974605;28;19930;-60
2023/10/18 13:10:29;;;;;;;;;;;;;;;13.18;45.49;97116.78;4970918;28;20282;-60
2023/10/18 13:12:56;;;;;;;;;;;;;;;13.20;45.40;97114.50;4971492;28;19964;-60
2023/10/18 13:15:24;;;;;;;;;;;;;;;13.16;45.45;97107.38;4965006;28;19922;-60
2023/10/18 13:17:53;;;;;;;;;;;;;;;13.14;45.79;97102.25;4954281;28;20363;-60
2023/10/18 13:20:24;;;;;;;;;;;;;;;13.13;46.41;97092.50;4969647;28;19968;-60
2023/10/18 13:22:55;;;;;;;;;;;;;;;13.20;46.78;97084.50;4970179;28;19923;-61
2023/10/18 13:25:25;;;;;;;;;;;;;;;13.24;46.52;97085.41;4960847;28;19922;-61
2023/10/18 13:27:54;;;;;;;;;;;;;;;13.28;46.11;97085.53;4963588;28;19929;-61
2023/10/18 13:30:32;;;;;;;;;;;;;;;13.31;45.94;97082.06;4971345;28;19922;-61